Time;durP1;ratioP1;P1;durP2;ratioP2;P2;SDS_P1;SDS_P2;PMS_P1;PMS_P2;Temp;Humidity;BMP_temperature;BMP_pressure;BME280_temperature;BME280_humidity;BME280_pressure;Samples;Min_cycle;Max_cycle;Signal;HPM_P1;HPM_P2
2022/01/23 00:02:28;;;;;;;2.38;2.05;;;;;;;-5.18;51.29;94099.41;5020105;28;20136;-75
2022/01/23 00:04:54;;;;;;;5.57;1.88;;;;;;;-5.17;51.23;94111.38;5011670;28;20068;-75
2022/01/23 00:07:20;;;;;;;2.78;2.53;;;;;;;-4.99;51.31;94129.59;5015256;28;20089;-73
2022/01/23 00:09:46;;;;;;;2.08;1.98;;;;;;;-5.19;51.36;94114.16;5025927;28;20036;-75
2022/01/23 00:12:16;;;;;;;2.15;2.05;;;;;;;-5.05;51.51;94125.25;5016587;28;20045;-74
2022/01/23 00:17:33;;;;;;;2.08;1.90;;;;;;;-5.15;52.10;94145.66;5021556;28;20072;-75
2022/01/23 00:20:00;;;;;;;5.95;2.22;;;;;;;-5.19;52.11;94139.28;5015146;28;20038;-73
2022/01/23 00:30:31;;;;;;;2.63;2.15;;;;;;;-5.15;52.24;94145.66;5017828;28;20037;-75
2022/01/23 00:32:59;;;;;;;1.95;1.80;;;;;;;-5.42;52.89;94124.28;5013949;28;20068;-75
2022/01/23 00:35:25;;;;;;;2.70;1.67;;;;;;;-5.14;52.88;94161.00;5021033;28;20037;-75
2022/01/23 00:37:51;;;;;;;12.25;2.92;;;;;;;-5.10;52.93;94153.59;5019016;28;20289;-76
2022/01/23 00:40:17;;;;;;;2.95;2.75;;;;;;;-5.29;53.00;94154.50;5021864;28;20029;-76
2022/01/23 00:42:44;;;;;;;4.22;2.15;;;;;;;-5.31;53.52;94163.28;5018875;28;20081;-76
2022/01/23 00:45:33;;;;;;;7.30;2.33;;;;;;;-5.24;53.39;94152.88;5022422;28;20034;-73
2022/01/23 00:48:06;;;;;;;2.30;2.20;;;;;;;-5.41;53.99;94136.19;5020718;28;20029;-77
2022/01/23 00:50:34;;;;;;;3.50;2.55;;;;;;;-5.13;53.41;94157.44;5009330;28;20049;-76
2022/01/23 00:53:00;;;;;;;2.85;2.10;;;;;;;-5.09;53.52;94134.44;4998668;28;20033;-75
2022/01/23 00:55:26;;;;;;;2.88;2.47;;;;;;;-4.97;53.41;94143.16;5010953;28;20044;-76
2022/01/23 00:57:52;;;;;;;2.42;2.03;;;;;;;-4.78;53.08;94155.19;5019622;28;20033;-76
2022/01/23 01:00:18;;;;;;;2.15;2.03;;;;;;;-4.74;52.90;94155.59;5014857;28;20040;-77
2022/01/23 01:02:43;;;;;;;3.95;2.42;;;;;;;-4.70;53.08;94154.97;5015697;28;20065;-74
2022/01/23 01:05:10;;;;;;;2.83;2.67;;;;;;;-4.74;53.04;94156.38;5012574;28;20045;-76
2022/01/23 01:07:35;;;;;;;5.28;3.97;;;;;;;-5.04;52.98;94121.66;5002982;28;20041;-76
2022/01/23 01:10:08;;;;;;;2.22;2.10;;;;;;;-4.76;53.51;94142.81;5014921;28;20033;-76
2022/01/23 01:12:42;;;;;;;4.63;2.67;;;;;;;-4.85;53.37;94141.47;5017746;28;20176;-72
2022/01/23 01:33:55;;;;;;;3.72;2.90;;;;;;;-5.31;55.01;94147.72;5007144;28;20026;-75
2022/01/23 01:36:34;;;;;;;2.70;2.45;;;;;;;-5.19;55.06;94144.47;5007431;28;20567;-76
2022/01/23 01:39:00;;;;;;;16.13;3.25;;;;;;;-5.29;55.00;94133.75;5010716;28;20038;-75
2022/01/23 01:41:26;;;;;;;3.67;3.15;;;;;;;-5.10;54.60;94144.03;5008223;28;20045;-75
2022/01/23 01:43:59;;;;;;;2.40;2.20;;;;;;;-5.10;54.57;94153.59;5011168;28;20324;-72
2022/01/23 01:46:25;;;;;;;3.33;3.05;;;;;;;-5.32;54.53;94120.19;5011911;28;20037;-75
2022/01/23 01:48:50;;;;;;;4.57;4.10;;;;;;;-5.36;54.91;94151.94;5015446;28;20024;-75
2022/01/23 01:51:17;;;;;;;4.20;3.17;;;;;;;-5.71;55.27;94110.03;5014270;28;20061;-75
2022/01/23 01:53:57;;;;;;;4.43;3.35;;;;;;;-5.31;55.31;94154.69;5005806;28;20096;-75
2022/01/23 01:56:23;;;;;;;2.85;2.65;;;;;;;-5.29;55.31;94154.50;5007342;28;20042;-75
2022/01/23 02:09:44;;;;;;;2.03;1.73;;;;;;;-5.33;54.75;94167.09;5003819;28;20201;-75
2022/01/23 02:53:19;;;;;;;3.83;2.38;;;;;;;-5.88;54.14;94139.97;5015629;28;20092;-75
2022/01/23 02:55:42;;;;;;;3.45;2.70;;;;;;;-5.59;54.18;94190.50;5014266;28;20321;-75
2022/01/23 02:58:11;;;;;;;2.60;2.40;;;;;;;-5.67;54.13;94181.19;5018058;28;20030;-73
2022/01/23 03:00:48;;;;;;;2.83;2.67;;;;;;;-5.55;53.79;94187.31;5009909;28;20045;-75
2022/01/23 03:03:21;;;;;;;3.22;2.92;;;;;;;-5.56;53.65;94164.19;5017700;28;20104;-74
2022/01/23 03:06:08;;;;;;;2.40;2.30;;;;;;;-5.42;53.25;94191.66;5010505;28;20042;-73
2022/01/23 03:08:55;;;;;;;3.67;2.78;;;;;;;-5.28;53.19;94200.19;5015884;28;20038;-76
2022/01/23 03:31:06;;;;;;;2.03;1.90;;;;;;;-5.66;53.60;94206.06;5012039;28;20568;-75
2022/01/23 03:33:35;;;;;;;6.28;3.40;;;;;;;-5.70;53.32;94204.88;5013407;28;20041;-76
2022/01/23 03:36:03;;;;;;;3.33;2.65;;;;;;;-6.09;53.09;94142.81;5013136;28;20040;-75
2022/01/23 03:38:28;;;;;;;2.33;2.15;;;;;;;-5.82;53.40;94199.56;5006933;28;20922;-75
2022/01/23 03:40:54;;;;;;;2.97;2.80;;;;;;;-5.72;53.36;94208.69;5008697;28;20049;-75
2022/01/23 03:43:27;;;;;;;2.30;2.20;;;;;;;-5.95;53.61;94193.56;5011941;28;20064;-72
2022/01/23 03:51:13;;;;;;;3.10;2.47;;;;;;;-6.19;53.78;94175.09;5016633;28;20034;-74
2022/01/23 03:53:40;;;;;;;2.92;2.72;;;;;;;-6.00;53.83;94177.84;4997922;28;20057;-76
2022/01/23 03:56:06;;;;;;;8.70;4.32;;;;;;;-5.86;54.03;94213.13;5014561;28;20038;-75
2022/01/23 03:58:32;;;;;;;2.55;2.35;;;;;;;-5.88;53.49;94212.50;4992205;28;20129;-76
2022/01/23 04:00:58;;;;;;;2.58;2.38;;;;;;;-5.89;53.87;94205.72;5007837;28;20121;-75
2022/01/23 04:03:24;;;;;;;3.28;2.88;;;;;;;-5.88;53.75;94207.31;5012407;28;20034;-75
2022/01/23 04:05:52;;;;;;;2.97;2.70;;;;;;;-6.03;53.54;94201.56;5012114;28;20049;-74
2022/01/23 04:08:19;;;;;;;1.83;1.73;;;;;;;-5.88;53.22;94218.50;5014419;28;20453;-74
2022/01/23 04:10:45;;;;;;;3.40;2.33;;;;;;;-5.79;53.25;94221.66;5012969;28;20111;-75
2022/01/23 04:15:47;;;;;;;2.33;2.10;;;;;;;-5.79;53.00;94206.91;5011221;28;20514;-74
2022/01/23 04:32:35;;;;;;;2.22;2.03;;;;;;;-5.70;52.86;94241.16;5012235;28;20036;-75
2022/01/23 04:34:34;;;;;;;1.42;1.42;;;;;;;-5.67;52.38;94234.78;5001396;28;20069;-75
2022/01/23 04:45:52;;;;;;;4.55;2.33;;;;;;;-5.40;51.80;94234.50;5007074;28;20048;-75
2022/01/23 05:01:53;;;;;;;1.83;1.73;;;;;;;-5.24;50.35;94237.66;5012875;28;20552;-75
2022/01/23 05:04:24;;;;;;;1.80;1.65;;;;;;;-5.71;50.38;94174.78;5011772;28;20029;-73
2022/01/23 05:07:00;;;;;;;2.85;2.55;;;;;;;-5.69;50.31;94216.84;5012474;28;20301;-75
2022/01/23 05:09:29;;;;;;;4.60;2.08;;;;;;;-5.58;50.84;94239.56;5010232;28;20037;-76
2022/01/23 05:12:01;;;;;;;3.72;3.08;;;;;;;-5.46;50.53;94239.72;4993637;28;20316;-76
2022/01/23 05:14:31;;;;;;;2.42;2.28;;;;;;;-5.69;50.76;94214.25;4999228;28;20061;-75
2022/01/23 05:16:57;;;;;;;3.75;3.33;;;;;;;-5.68;50.73;94239.19;5010290;28;20037;-75
2022/01/23 05:19:23;;;;;;;2.13;2.03;;;;;;;-5.67;50.78;94239.97;5010490;28;20029;-75
2022/01/23 05:24:17;;;;;;;3.92;2.10;;;;;;;-5.73;51.12;94239.00;5008401;28;20132;-75
2022/01/23 05:26:45;;;;;;;1.73;1.63;;;;;;;-5.83;51.38;94272.28;5005641;28;20037;-74
2022/01/23 05:29:12;;;;;;;2.63;2.53;;;;;;;-5.76;51.32;94267.91;5013097;28;20061;-75
2022/01/23 05:31:38;;;;;;;3.33;2.70;;;;;;;-5.84;51.12;94240.41;5003335;28;20224;-75
2022/01/23 05:34:03;;;;;;;3.95;3.10;;;;;;;-5.87;51.05;94277.06;5015272;28;20034;-76
2022/01/23 05:36:29;;;;;;;4.07;3.67;;;;;;;-5.87;51.35;94278.88;5007955;28;20069;-75
2022/01/23 05:38:54;;;;;;;3.05;2.20;;;;;;;-5.84;51.11;94263.72;5009216;28;21005;-74
2022/01/23 05:41:20;;;;;;;2.80;2.65;;;;;;;-5.82;51.02;94277.28;5009369;28;21110;-74
2022/01/23 05:43:45;;;;;;;3.53;3.20;;;;;;;-5.79;50.88;94276.06;5009156;28;20034;-73
2022/01/23 05:46:16;;;;;;;5.43;4.75;;;;;;;-5.82;51.05;94281.66;5012956;28;20070;-71
2022/01/23 05:48:42;;;;;;;3.95;3.60;;;;;;;-6.05;50.93;94260.56;5012465;28;20052;-75
2022/01/23 05:51:12;;;;;;;3.80;3.45;;;;;;;-6.03;51.11;94261.13;5007426;28;20041;-75
2022/01/23 05:53:38;;;;;;;3.13;2.70;;;;;;;-6.06;51.05;94262.34;5006231;28;20653;-74
2022/01/23 05:56:04;;;;;;;4.25;2.83;;;;;;;-5.86;50.74;94276.06;5006482;28;20049;-75
2022/01/23 05:58:29;;;;;;;4.50;3.45;;;;;;;-5.82;50.79;94255.75;5012332;28;20036;-72
2022/01/23 06:00:55;;;;;;;3.70;2.92;;;;;;;-5.72;50.28;94253.53;5003316;28;20061;-75
2022/01/23 06:03:21;;;;;;;6.63;4.15;;;;;;;-5.76;50.34;94273.84;5010691;28;20072;-71
2022/01/23 06:05:47;;;;;;;3.65;2.92;;;;;;;-5.76;50.36;94273.09;5015405;28;20045;-74
2022/01/23 06:08:12;;;;;;;4.22;3.83;;;;;;;-5.66;50.30;94267.50;5002247;28;20076;-74
2022/01/23 06:10:53;;;;;;;4.05;3.67;;;;;;;-5.72;50.28;94274.28;5001680;28;20033;-73
2022/01/23 06:13:19;;;;;;;2.80;2.60;;;;;;;-5.75;50.28;94285.00;5009450;28;20840;-75
2022/01/23 06:15:44;;;;;;;2.80;2.60;;;;;;;-6.14;51.12;94292.78;5009710;28;20120;-75
2022/01/23 06:18:10;;;;;;;3.47;3.17;;;;;;;-6.30;51.28;94250.75;5003356;28;20120;-75
2022/01/23 06:20:35;;;;;;;6.07;3.33;;;;;;;-6.14;51.08;94269.50;5012519;28;20037;-76
2022/01/23 06:23:01;;;;;;;3.13;2.92;;;;;;;-6.08;51.40;94268.72;5007659;28;20454;-76
2022/01/23 06:25:32;;;;;;;2.60;2.40;;;;;;;-5.97;51.17;94304.38;5009343;28;20618;-74
2022/01/23 06:27:58;;;;;;;3.78;3.22;;;;;;;-6.19;50.97;94260.53;5006835;28;20034;-75
2022/01/23 06:30:24;;;;;;;3.40;3.03;;;;;;;-5.95;51.06;94292.81;5007381;28;20064;-75
2022/01/23 06:32:49;;;;;;;5.85;3.95;;;;;;;-6.02;51.07;94280.84;5007596;28;20037;-74
2022/01/23 06:35:14;;;;;;;5.80;3.70;;;;;;;-5.70;51.08;94300.75;5011096;28;20069;-76
2022/01/23 06:37:40;;;;;;;4.65;3.20;;;;;;;-5.79;51.01;94276.84;5013025;28;20045;-75
2022/01/23 06:40:06;;;;;;;5.32;3.30;;;;;;;-5.40;50.18;94301.13;5009631;28;20281;-75
2022/01/23 06:42:32;;;;;;;6.50;3.95;;;;;;;-5.41;50.27;94276.97;5007387;28;20124;-76
2022/01/23 06:44:58;;;;;;;3.75;2.65;;;;;;;-5.60;50.19;94257.09;5005785;28;20154;-76
2022/01/23 06:47:24;;;;;;;2.60;2.38;;;;;;;-5.25;49.92;94298.28;5007180;28;20428;-74
2022/01/23 06:49:49;;;;;;;8.95;3.55;;;;;;;-5.56;50.17;94273.81;5013083;28;20318;-75
2022/01/23 06:52:15;;;;;;;3.40;3.15;;;;;;;-5.65;50.35;94248.31;5006412;28;20041;-75
2022/01/23 06:54:40;;;;;;;3.47;3.15;;;;;;;-5.27;49.99;94295.88;5010801;28;20619;-77
2022/01/23 06:57:06;;;;;;;10.55;3.60;;;;;;;-5.31;49.95;94287.72;5002988;28;20457;-75
2022/01/23 06:59:31;;;;;;;4.65;3.80;;;;;;;-5.33;50.10;94294.94;5009420;28;20037;-74
2022/01/23 07:01:58;;;;;;;5.18;3.78;;;;;;;-5.42;50.23;94296.13;5011761;28;20457;-76
2022/01/23 07:04:23;;;;;;;2.88;2.70;;;;;;;-5.67;50.47;94282.25;5013781;28;20082;-76
2022/01/23 07:06:49;;;;;;;7.45;4.43;;;;;;;-5.76;50.74;94275.69;5018657;28;20049;-75
2022/01/23 07:09:14;;;;;;;2.95;2.70;;;;;;;-5.72;51.13;94284.63;5009887;28;20053;-75
2022/01/23 07:11:40;;;;;;;3.55;3.15;;;;;;;-5.60;50.89;94277.81;5022557;28;20049;-75
2022/01/23 07:14:05;;;;;;;6.28;4.30;;;;;;;-5.62;51.23;94295.38;5008888;28;20046;-75
2022/01/23 07:16:32;;;;;;;3.10;2.80;;;;;;;-5.62;51.23;94290.22;5016477;28;20109;-72
2022/01/23 07:18:58;;;;;;;6.53;3.20;;;;;;;-5.75;51.29;94274.66;5014863;28;20026;-76
2022/01/23 07:21:23;;;;;;;3.60;3.30;;;;;;;-5.92;51.82;94281.25;5012606;28;20037;-75
2022/01/23 07:23:50;;;;;;;2.85;2.15;;;;;;;-5.79;51.84;94304.56;5012121;28;20724;-76
2022/01/23 07:26:18;;;;;;;6.43;2.70;;;;;;;-5.95;51.69;94281.63;5016887;28;20053;-75
2022/01/23 07:28:45;;;;;;;5.35;2.53;;;;;;;-6.20;51.75;94234.88;5016646;28;20049;-74
2022/01/23 07:31:11;;;;;;;5.43;2.97;;;;;;;-5.70;52.07;94305.13;5011367;28;20029;-73
2022/01/23 07:33:37;;;;;;;5.40;3.65;;;;;;;-5.48;51.92;94312.50;5016691;28;20042;-74
2022/01/23 07:36:05;;;;;;;4.05;3.25;;;;;;;-5.62;51.40;94290.22;5017352;28;20047;-76
2022/01/23 07:38:31;;;;;;;5.22;3.58;;;;;;;-5.58;51.01;94290.59;5017685;28;20042;-76
2022/01/23 07:40:57;;;;;;;4.85;3.78;;;;;;;-5.46;50.88;94288.97;5017282;28;20049;-75
2022/01/23 07:43:22;;;;;;;4.10;2.90;;;;;;;-5.38;50.81;94294.75;5019747;28;20133;-72
2022/01/23 07:45:48;;;;;;;2.05;1.95;;;;;;;-5.50;50.63;94303.31;5016449;28;20154;-75
2022/01/23 07:48:13;;;;;;;6.72;3.78;;;;;;;-5.54;50.67;94271.03;5017786;28;20107;-73
2022/01/23 07:50:39;;;;;;;5.78;2.97;;;;;;;-5.39;50.24;94298.31;5019495;28;20042;-75
2022/01/23 07:53:05;;;;;;;7.38;4.80;;;;;;;-5.39;50.00;94300.91;5017202;28;20038;-73
2022/01/23 07:55:30;;;;;;;3.38;3.05;;;;;;;-5.45;50.06;94288.75;5015701;28;20536;-76
2022/01/23 07:58:02;;;;;;;2.67;2.47;;;;;;;-5.29;50.36;94294.50;5015655;28;20056;-75
2022/01/23 08:00:28;;;;;;;3.65;3.40;;;;;;;-5.24;50.08;94286.94;5019278;28;20077;-75
2022/01/23 08:02:54;;;;;;;3.10;2.58;;;;;;;-4.93;50.13;94310.38;5018192;28;20042;-74
2022/01/23 08:05:19;;;;;;;3.70;3.28;;;;;;;-4.72;49.77;94312.66;5018906;28;20045;-76
2022/01/23 08:07:45;;;;;;;4.03;3.63;;;;;;;-4.67;49.05;94315.44;5016525;28;20042;-76
2022/01/23 08:10:10;;;;;;;3.33;2.30;;;;;;;-4.88;49.04;94295.00;5016389;28;20412;-76
2022/01/23 08:12:36;;;;;;;5.40;2.70;;;;;;;-4.71;48.63;94322.03;5018466;28;20534;-73
2022/01/23 08:15:04;;;;;;;4.07;3.55;;;;;;;-4.60;48.84;94320.59;5014225;28;20205;-75
2022/01/23 08:17:30;;;;;;;4.38;3.63;;;;;;;-4.61;48.79;94319.81;5019727;28;20041;-73
2022/01/23 08:19:58;;;;;;;5.65;3.80;;;;;;;-4.53;48.47;94300.59;5029348;28;20041;-75
2022/01/23 08:22:24;;;;;;;3.88;2.83;;;;;;;-4.46;47.99;94307.34;5016913;28;20021;-75
2022/01/23 08:24:51;;;;;;;4.03;3.50;;;;;;;-4.44;48.33;94315.72;5019135;28;20032;-76
2022/01/23 08:27:17;;;;;;;3.78;2.70;;;;;;;-4.30;48.01;94315.66;5022852;28;20040;-76
2022/01/23 08:29:43;;;;;;;4.35;2.30;;;;;;;-4.46;47.70;94314.34;5020004;28;20133;-75
2022/01/23 08:32:09;;;;;;;3.67;2.90;;;;;;;-4.58;48.20;94314.19;5011157;28;20382;-75
2022/01/23 08:34:37;;;;;;;5.85;4.00;;;;;;;-4.69;48.28;94296.69;5020594;28;20025;-73
2022/01/23 08:37:04;;;;;;;2.78;2.58;;;;;;;-4.65;48.08;94305.66;5010505;28;20021;-76
2022/01/23 08:39:31;;;;;;;3.83;3.25;;;;;;;-4.54;48.27;94320.56;5016526;28;20555;-73
2022/01/23 08:41:57;;;;;;;4.90;2.53;;;;;;;-4.60;48.10;94285.06;5004954;28;20041;-73
2022/01/23 08:44:25;;;;;;;4.85;3.15;;;;;;;-4.64;47.89;94289.09;5020232;28;20033;-73
2022/01/23 08:46:52;;;;;;;5.22;3.80;;;;;;;-4.67;48.32;94279.09;5028795;28;20270;-75
2022/01/23 08:49:20;;;;;;;4.88;3.78;;;;;;;-4.39;48.43;94303.94;5023572;28;20064;-75
2022/01/23 08:51:47;;;;;;;7.68;5.53;;;;;;;-4.33;48.07;94284.88;5023364;28;20041;-75
2022/01/23 08:54:12;;;;;;;4.35;3.42;;;;;;;-4.20;47.68;94292.63;5021720;28;20045;-76
2022/01/23 08:56:38;;;;;;;4.07;3.45;;;;;;;-4.07;47.66;94300.31;5022338;28;20221;-73
2022/01/23 08:59:04;;;;;;;5.85;3.22;;;;;;;-4.16;47.05;94270.41;5021677;28;20056;-75
2022/01/23 09:01:29;;;;;;;2.08;1.95;;;;;;;-4.35;46.86;94292.13;5022633;28;20041;-73
2022/01/23 09:03:55;;;;;;;3.03;2.75;;;;;;;-4.35;47.23;94297.31;5028293;28;20113;-75
2022/01/23 09:06:21;;;;;;;5.35;3.95;;;;;;;-4.37;47.17;94305.28;5016238;28;20038;-72
2022/01/23 09:08:46;;;;;;;4.40;3.60;;;;;;;-4.31;47.55;94311.47;5021605;28;20625;-73
2022/01/23 09:11:27;;;;;;;3.20;3.00;;;;;;;-4.54;47.29;94293.81;5014886;28;20504;-76
2022/01/23 09:16:20;;;;;;;4.82;3.58;;;;;;;-4.16;47.62;94306.78;5018589;28;20025;-75
2022/01/23 09:18:45;;;;;;;7.00;4.57;;;;;;;-4.45;47.27;94279.59;5012517;28;20040;-74
2022/01/23 09:21:11;;;;;;;5.50;3.58;;;;;;;-4.35;47.50;94276.53;5012411;28;20395;-76
2022/01/23 09:23:36;;;;;;;4.68;2.97;;;;;;;-4.24;46.78;94274.03;5012544;28;20441;-75
2022/01/23 09:26:08;;;;;;;4.57;3.83;;;;;;;-4.19;47.03;94270.81;5019067;28;20053;-75
2022/01/23 09:28:36;;;;;;;6.18;4.32;;;;;;;-4.08;46.91;94283.94;5014902;28;20040;-75
2022/01/23 09:31:02;;;;;;;6.35;3.63;;;;;;;-4.05;46.54;94298.31;5020277;28;20045;-75
2022/01/23 09:33:28;;;;;;;5.05;2.50;;;;;;;-4.30;46.31;94285.28;5019498;28;20129;-75
2022/01/23 09:35:54;;;;;;;3.35;3.08;;;;;;;-4.31;46.91;94282.91;5019989;28;20055;-75
2022/01/23 09:38:20;;;;;;;4.32;3.33;;;;;;;-4.35;46.62;94282.53;5014691;28;20120;-74
2022/01/23 09:40:51;;;;;;;4.32;3.03;;;;;;;-4.19;46.72;94292.38;5016312;28;20573;-75
2022/01/23 09:43:19;;;;;;;3.58;2.65;;;;;;;-4.33;46.87;94264.13;5016190;28;20030;-76
2022/01/23 09:45:47;;;;;;;4.65;2.40;;;;;;;-4.31;46.86;94280.31;5016101;28;20795;-74
2022/01/23 09:48:13;;;;;;;5.95;2.40;;;;;;;-4.46;47.27;94275.41;5018953;28;20561;-75
2022/01/23 09:50:42;;;;;;;5.15;3.20;;;;;;;-4.34;47.16;94270.34;5019398;28;20048;-75
2022/01/23 09:53:07;;;;;;;3.13;2.72;;;;;;;-4.24;47.34;94273.25;5019094;28;20506;-75
2022/01/23 09:55:33;;;;;;;3.83;3.35;;;;;;;-4.16;47.15;94270.41;5015478;28;20068;-75
2022/01/23 09:57:59;;;;;;;5.82;3.90;;;;;;;-4.13;47.36;94269.97;5010705;28;20025;-74
2022/01/23 10:00:28;;;;;;;3.17;2.47;;;;;;;-6.25;46.42;93978.38;5062500;23;20997;-76
2022/01/23 10:03:15;;;;;;;3.63;3.33;;;;;;;-5.14;46.71;94191.34;4943043;22;20043;-75
2022/01/23 10:05:44;;;;;;;2.78;2.50;;;;;;;-4.88;47.28;94241.28;4952622;28;20039;-76
2022/01/23 10:08:09;;;;;;;8.60;4.63;;;;;;;-4.57;47.00;94276.84;4993332;23;20060;-72
2022/01/23 10:10:39;;;;;;;4.82;3.67;;;;;;;-4.91;47.29;94222.75;5024789;28;20072;-72
2022/01/23 10:13:05;;;;;;;2.40;2.20;;;;;;;-4.74;47.06;94265.38;5040846;28;20290;-73
2022/01/23 10:15:32;;;;;;;6.18;3.25;;;;;;;-4.88;47.71;94266.44;5024728;28;20508;-71
2022/01/23 10:17:59;;;;;;;4.70;3.13;;;;;;;-4.81;47.83;94269.00;5031079;28;20437;-71
2022/01/23 10:20:25;;;;;;;3.75;3.05;;;;;;;-4.87;47.48;94258.44;5022723;28;21219;-73
2022/01/23 10:22:52;;;;;;;7.85;4.07;;;;;;;-4.89;47.24;94233.72;5021325;28;20071;-72
2022/01/23 10:25:20;;;;;;;7.18;3.97;;;;;;;-4.89;47.16;94231.13;5041672;28;20477;-71
2022/01/23 10:28:05;;;;;;;4.03;3.47;;;;;;;-4.61;47.45;94256.72;5029623;28;20029;-71
2022/01/23 10:30:41;;;;;;;3.58;2.78;;;;;;;-4.79;46.91;94238.47;5021575;28;20614;-71
2022/01/23 10:33:15;;;;;;;2.30;2.20;;;;;;;-4.63;47.31;94245.72;5027140;28;20091;-73
2022/01/23 10:35:57;;;;;;;3.53;3.33;;;;;;;-4.70;46.80;94227.63;5026455;28;20122;-72
2022/01/23 10:38:26;;;;;;;2.67;2.42;;;;;;;-4.71;47.27;94241.59;5031892;28;20049;-71
2022/01/23 10:41:05;;;;;;;3.58;3.10;;;;;;;-4.58;46.96;94230.31;5027153;28;20033;-72
2022/01/23 10:46:40;;;;;;;3.08;2.75;;;;;;;-4.39;46.28;94197.47;5024257;28;20028;-72
2022/01/23 10:49:06;;;;;;;3.25;2.85;;;;;;;-4.35;46.31;94222.00;5026969;28;20029;-71
2022/01/23 10:51:36;;;;;;;4.13;2.88;;;;;;;-4.32;46.47;94204.19;5021871;28;20084;-71
2022/01/23 10:54:17;;;;;;;2.72;2.15;;;;;;;-4.22;46.04;94214.09;5027832;28;20059;-71
2022/01/23 10:57:08;;;;;;;3.25;2.00;;;;;;;-4.24;45.67;94216.09;5027365;28;20069;-71
2022/01/23 10:59:45;;;;;;;2.50;2.33;;;;;;;-4.46;45.52;94213.09;5023942;28;20140;-72
2022/01/23 11:02:13;;;;;;;5.63;3.63;;;;;;;-4.63;46.00;94186.84;5020327;28;20041;-71
2022/01/23 11:05:01;;;;;;;3.58;2.35;;;;;;;-4.49;46.06;94211.69;5017074;28;20045;-72
2022/01/23 11:07:28;;;;;;;2.60;2.40;;;;;;;-4.40;46.08;94208.84;5014708;28;20359;-71
2022/01/23 11:10:18;;;;;;;5.28;2.67;;;;;;;-4.38;45.95;94199.03;5028154;28;20631;-71
2022/01/23 11:18:13;;;;;;;5.15;3.08;;;;;;;-4.34;44.95;94189.84;5025700;28;20614;-71
2022/01/23 11:20:42;;;;;;;2.15;2.05;;;;;;;-4.44;45.29;94190.31;5010210;28;20106;-71
2022/01/23 11:23:23;;;;;;;6.32;3.20;;;;;;;-4.27;45.63;94191.38;5020046;28;20432;-72
2022/01/23 11:25:55;;;;;;;3.00;2.53;;;;;;;-4.26;45.98;94189.56;5023097;28;20504;-72
2022/01/23 11:28:31;;;;;;;3.92;3.25;;;;;;;-4.19;45.34;94182.50;5015113;28;20037;-71
2022/01/23 11:30:57;;;;;;;3.15;2.33;;;;;;;-4.17;45.97;94144.94;5026015;28;21025;-72
2022/01/23 11:33:23;;;;;;;4.60;3.53;;;;;;;-4.15;44.71;94171.50;5024040;28;20061;-71
2022/01/23 11:35:49;;;;;;;3.45;2.53;;;;;;;-4.19;44.61;94166.91;5020807;28;20977;-74
2022/01/23 11:38:19;;;;;;;2.75;2.50;;;;;;;-4.23;44.88;94150.97;5028488;28;20128;-71
2022/01/23 11:54:46;;;;;;;5.25;3.03;;;;;;;-4.39;44.17;94161.13;5021226;28;20071;-74
2022/01/23 11:57:38;;;;;;;1.65;1.58;;;;;;;-4.41;44.53;94156.13;5018991;28;20263;-72
2022/01/23 12:00:06;;;;;;;3.38;2.15;;;;;;;-4.45;45.63;94145.38;5030340;28;20037;-71
2022/01/23 12:02:37;;;;;;;2.97;2.10;;;;;;;-4.64;44.99;94112.59;5019959;28;20053;-71
2022/01/23 12:05:12;;;;;;;3.08;2.65;;;;;;;-4.31;44.71;94142.66;5022139;28;20542;-70
2022/01/23 12:07:39;;;;;;;2.75;2.35;;;;;;;-4.19;44.74;94151.34;5015600;28;20060;-71
2022/01/23 12:10:20;;;;;;;2.25;2.10;;;;;;;-4.25;44.63;94141.81;5021168;28;20171;-74
2022/01/23 12:12:48;;;;;;;2.53;2.13;;;;;;;-4.23;45.05;94129.41;5035841;28;20036;-72
2022/01/23 12:18:16;;;;;;;4.60;4.20;;;;;;;-4.17;44.65;94146.72;5020282;28;20068;-71
2022/01/23 12:20:47;;;;;;;2.60;2.40;;;;;;;-4.31;44.04;94133.06;5021696;28;20123;-72
2022/01/23 12:23:14;;;;;;;4.45;2.10;;;;;;;-4.37;45.10;94148.69;5017777;28;20120;-74
2022/01/23 12:25:52;;;;;;;2.72;2.53;;;;;;;-4.37;44.69;94133.91;5020248;28;20534;-71
2022/01/23 12:28:25;;;;;;;3.22;2.03;;;;;;;-4.35;44.75;94154.50;5019196;28;20517;-71
2022/01/23 12:30:57;;;;;;;3.67;3.35;;;;;;;-4.28;45.03;94152.63;5022910;28;20033;-71
2022/01/23 12:33:28;;;;;;;3.00;2.70;;;;;;;-4.57;44.57;94115.13;5014792;28;20171;-71
2022/01/23 12:36:01;;;;;;;2.88;2.47;;;;;;;-4.44;45.01;94153.97;5017826;28;20068;-71
2022/01/23 12:38:29;;;;;;;4.28;2.72;;;;;;;-4.41;45.25;94152.72;5016083;28;20140;-72
2022/01/23 12:40:55;;;;;;;5.72;2.90;;;;;;;-4.38;45.71;94147.09;5018440;28;20041;-71
2022/01/23 12:43:24;;;;;;;4.18;3.58;;;;;;;-4.48;45.57;94121.63;5016175;28;20111;-74
2022/01/23 12:45:56;;;;;;;6.57;4.15;;;;;;;-4.27;45.14;94155.00;5019865;28;20409;-71
2022/01/23 12:48:31;;;;;;;3.80;3.20;;;;;;;-4.28;45.04;94152.63;5016035;28;20045;-72
2022/01/23 12:50:58;;;;;;;5.32;3.30;;;;;;;-4.40;45.26;94155.13;5015482;28;20049;-71
2022/01/23 12:53:50;;;;;;;9.77;3.15;;;;;;;-4.34;45.53;94163.88;5019344;28;20549;-71
2022/01/23 12:56:18;;;;;;;3.40;2.70;;;;;;;-4.32;46.05;94161.84;4988069;28;20048;-72
2022/01/23 12:58:51;;;;;;;5.47;2.97;;;;;;;-4.31;45.96;94142.66;5014968;28;20095;-75
2022/01/23 13:01:19;;;;;;;1.95;1.85;;;;;;;-4.35;45.90;94159.69;5024833;28;20037;-72
2022/01/23 13:03:55;;;;;;;11.50;3.35;;;;;;;-4.64;45.91;94148.13;5019912;28;20598;-72
2022/01/23 13:06:31;;;;;;;2.28;2.08;;;;;;;-4.60;45.97;94159.69;5019615;28;20036;-71
2022/01/23 13:09:44;;;;;;;3.90;2.05;;;;;;;-4.63;46.27;94158.28;5023707;28;20077;-71
2022/01/23 13:17:50;;;;;;;4.90;2.38;;;;;;;-4.71;46.73;94163.75;5023727;28;20534;-73
2022/01/23 13:34:29;;;;;;;6.60;3.53;;;;;;;-4.39;46.88;94177.47;5022808;28;20075;-71
2022/01/23 13:37:11;;;;;;;3.47;3.17;;;;;;;-4.65;46.35;94144.75;5026620;28;20037;-71
2022/01/23 13:39:56;;;;;;;3.90;3.60;;;;;;;-4.57;46.48;94169.63;5020055;28;20535;-72
2022/01/23 13:42:46;;;;;;;3.30;2.30;;;;;;;-4.52;46.58;94173.19;5017507;28;20428;-71
2022/01/23 13:59:21;;;;;;;3.70;2.50;;;;;;;-4.43;47.11;94174.50;5017601;28;20089;-72
2022/01/23 14:01:51;;;;;;;5.43;2.63;;;;;;;-4.52;46.85;94156.81;5013485;28;20051;-71
2022/01/23 14:04:18;;;;;;;4.20;2.75;;;;;;;-4.35;46.76;94178.66;5007975;28;20120;-72
2022/01/23 14:06:45;;;;;;;2.20;2.00;;;;;;;-4.54;46.79;94144.03;5011918;28;20124;-71
2022/01/23 14:09:12;;;;;;;3.72;3.42;;;;;;;-4.66;46.80;94155.31;5026346;28;20113;-73
2022/01/23 14:11:39;;;;;;;5.97;3.20;;;;;;;-4.57;46.74;94180.00;5017743;28;20037;-73
2022/01/23 14:14:15;;;;;;;3.58;2.22;;;;;;;-4.71;46.96;94158.53;5010309;28;20033;-72
2022/01/23 14:16:42;;;;;;;6.38;4.07;;;;;;;-4.67;47.08;94183.06;5024050;28;20694;-71
2022/01/23 14:19:18;;;;;;;4.10;3.70;;;;;;;-4.79;46.69;94171.78;5014456;28;20056;-72
2022/01/23 14:21:48;;;;;;;2.35;2.15;;;;;;;-4.74;46.72;94190.13;5017585;28;20155;-74
2022/01/23 14:24:22;;;;;;;3.88;2.70;;;;;;;-4.79;47.42;94182.16;5017557;28;20037;-71
2022/01/23 14:27:07;;;;;;;3.53;3.22;;;;;;;-4.74;47.47;94190.13;5020595;28;20460;-72
2022/01/23 14:29:48;;;;;;;3.10;2.92;;;;;;;-4.92;47.53;94187.41;4995849;28;20102;-71
2022/01/23 14:32:27;;;;;;;3.08;2.78;;;;;;;-4.86;47.70;94194.38;5011252;28;20048;-72
2022/01/23 14:35:26;;;;;;;2.55;2.40;;;;;;;-4.71;47.82;94194.09;5017051;28;20072;-71
2022/01/23 14:37:53;;;;;;;5.05;3.20;;;;;;;-4.64;47.87;94208.63;4989399;28;20045;-72
2022/01/23 14:40:28;;;;;;;2.97;2.80;;;;;;;-4.65;47.98;94222.59;5013364;28;20473;-73
2022/01/23 14:43:20;;;;;;;2.95;2.75;;;;;;;-4.68;47.93;94204.03;5015602;28;20037;-72
2022/01/23 14:45:47;;;;;;;3.22;2.95;;;;;;;-4.82;48.32;94211.09;5017614;28;20072;-74
2022/01/23 14:48:15;;;;;;;4.53;3.50;;;;;;;-4.81;48.61;94178.97;5025091;28;20047;-72
2022/01/23 14:50:45;;;;;;;3.97;3.60;;;;;;;-4.65;48.55;94203.63;5021282;28;20029;-71
2022/01/23 14:53:14;;;;;;;3.08;2.78;;;;;;;-4.63;48.45;94207.59;5017904;28;21452;-75
2022/01/23 14:55:43;;;;;;;5.88;3.30;;;;;;;-4.55;48.45;94214.34;5017861;28;20102;-71
2022/01/23 14:58:14;;;;;;;5.82;4.75;;;;;;;-4.71;48.23;94179.31;5022305;28;20032;-72
2022/01/23 15:00:40;;;;;;;5.03;3.85;;;;;;;-4.68;48.84;94199.66;5011377;28;20094;-72
2022/01/23 15:03:07;;;;;;;3.65;3.05;;;;;;;-4.54;48.79;94208.94;5018090;28;20151;-72
2022/01/23 15:05:35;;;;;;;5.50;3.13;;;;;;;-4.43;48.58;94217.84;5018812;28;20037;-72
2022/01/23 15:08:04;;;;;;;3.25;2.95;;;;;;;-4.54;48.35;94206.34;5024653;28;20103;-71
2022/01/23 15:10:30;;;;;;;4.97;2.70;;;;;;;-4.91;49.21;94199.38;5019850;28;20106;-74
2022/01/23 15:12:55;;;;;;;3.28;2.97;;;;;;;-5.41;49.23;94134.41;5022262;28;20485;-73
2022/01/23 15:15:21;;;;;;;3.65;2.83;;;;;;;-4.85;49.11;94203.75;5012526;28;20119;-74